createdAt,value
2022-07-29T00:00:32.524Z,4.90
2022-07-29T00:01:32.540Z,3.50
2022-07-29T00:02:32.576Z,4.50
2022-07-29T00:03:32.653Z,4.20
2022-07-29T00:04:32.658Z,5.30
2022-07-29T00:05:32.600Z,4.70
2022-07-29T00:06:32.612Z,4.90
2022-07-29T00:07:32.628Z,3.80
2022-07-29T00:08:32.640Z,5.00
2022-07-29T00:09:32.616Z,5.00
2022-07-29T00:10:32.632Z,3.90
2022-07-29T00:11:32.647Z,4.00
2022-07-29T00:12:32.661Z,4.50
2022-07-29T00:13:33.036Z,4.60
2022-07-29T00:14:32.692Z,4.60
2022-07-29T00:15:32.706Z,4.60
2022-07-29T00:16:32.765Z,3.90
2022-07-29T00:17:32.735Z,4.20
2022-07-29T00:18:32.816Z,4.20
2022-07-29T00:19:32.763Z,3.80
2022-07-29T00:20:32.779Z,4.20
2022-07-29T00:21:32.794Z,4.40
2022-07-29T00:22:33.011Z,4.70
2022-07-29T00:23:36.674Z,3.90
2022-07-29T00:24:32.838Z,5.60
2022-07-29T00:25:32.851Z,5.40
2022-07-29T00:26:32.867Z,3.50
2022-07-29T00:27:32.887Z,3.60
2022-07-29T00:28:32.895Z,4.80
2022-07-29T00:29:34.626Z,4.60
2022-07-29T00:30:33.011Z,4.90
2022-07-29T00:31:33.015Z,4.50
2022-07-29T00:32:32.953Z,4.80
2022-07-29T00:33:32.967Z,3.70
2022-07-29T00:34:32.983Z,4.30
2022-07-29T00:35:32.999Z,3.90
2022-07-29T00:36:33.012Z,4.40
2022-07-29T00:37:33.026Z,3.40
2022-07-29T00:38:33.055Z,4.30
2022-07-29T00:39:33.057Z,4.00
2022-07-29T00:40:33.075Z,3.60
2022-07-29T00:41:33.084Z,4.60
2022-07-29T00:42:33.100Z,5.20
2022-07-29T00:43:33.113Z,5.10
2022-07-29T00:44:33.127Z,4.60
2022-07-29T00:45:33.148Z,3.60
2022-07-29T00:46:33.281Z,4.90
2022-07-29T00:47:33.171Z,4.00
2022-07-29T00:48:33.189Z,4.00
2022-07-29T00:49:33.202Z,4.30
2022-07-29T00:50:33.216Z,5.00
2022-07-29T00:51:33.231Z,4.60
2022-07-29T00:52:33.244Z,4.00
2022-07-29T00:53:33.259Z,4.10
2022-07-29T00:54:33.272Z,5.10
2022-07-29T00:55:33.287Z,3.40
2022-07-29T00:56:33.302Z,4.00
2022-07-29T00:57:33.318Z,3.80
2022-07-29T00:58:33.333Z,4.60
2022-07-29T00:59:35.054Z,4.10
2022-07-29T01:00:33.409Z,4.20
2022-07-29T01:01:33.414Z,3.50
2022-07-29T01:02:33.464Z,4.30
2022-07-29T01:03:33.404Z,3.80
2022-07-29T01:04:33.436Z,3.70
2022-07-29T01:05:48.419Z,5.00
2022-07-29T01:06:33.448Z,3.90
2022-07-29T01:07:33.462Z,4.50
2022-07-29T01:08:33.476Z,4.30
2022-07-29T01:09:42.086Z,4.10
2022-07-29T01:10:33.505Z,4.90
2022-07-29T01:11:33.521Z,4.10
2022-07-29T01:12:33.539Z,4.00
2022-07-29T01:13:33.550Z,5.10
2022-07-29T01:14:33.563Z,5.60
2022-07-29T01:15:33.579Z,5.60
2022-07-29T01:16:33.658Z,5.70
2022-07-29T01:17:33.608Z,4.50
2022-07-29T01:18:34.068Z,4.30
2022-07-29T01:19:33.636Z,5.30
2022-07-29T01:20:33.650Z,5.30
2022-07-29T01:21:33.665Z,4.10
2022-07-29T01:22:33.679Z,4.00
2022-07-29T01:23:33.693Z,4.40
2022-07-29T01:24:33.708Z,6.10
2022-07-29T01:25:33.728Z,4.30
2022-07-29T01:26:33.745Z,3.90
2022-07-29T01:27:33.752Z,4.50
2022-07-29T01:28:33.766Z,5.90
2022-07-29T01:29:36.085Z,4.00
2022-07-29T01:30:33.796Z,4.60
2022-07-29T01:31:33.919Z,5.60
2022-07-29T01:32:33.937Z,5.00
2022-07-29T01:33:33.839Z,5.00
2022-07-29T01:34:33.852Z,5.20
2022-07-29T01:35:33.869Z,5.40
2022-07-29T01:36:33.883Z,5.20
2022-07-29T01:37:33.896Z,5.60
2022-07-29T01:38:33.909Z,5.70
2022-07-29T01:39:33.925Z,4.40
2022-07-29T01:40:33.940Z,5.70
2022-07-29T01:41:33.953Z,4.50
2022-07-29T01:42:33.966Z,5.50
2022-07-29T01:43:33.981Z,5.90
2022-07-29T01:44:34.000Z,5.60
2022-07-29T01:45:34.010Z,6.00
2022-07-29T01:46:34.072Z,5.70
2022-07-29T01:47:35.784Z,4.50
2022-07-29T01:48:34.056Z,4.90
2022-07-29T01:49:34.069Z,5.10
2022-07-29T01:50:34.085Z,4.30
2022-07-29T01:51:34.098Z,5.30
2022-07-29T01:52:34.111Z,3.80
2022-07-29T01:53:37.617Z,4.20
2022-07-29T01:54:34.140Z,4.40
2022-07-29T01:55:34.155Z,4.40
2022-07-29T01:56:34.171Z,5.10
2022-07-29T01:57:34.186Z,4.50
2022-07-29T01:58:34.199Z,4.20
2022-07-29T01:59:34.212Z,4.20
2022-07-29T02:00:34.228Z,5.40
2022-07-29T02:01:34.335Z,4.50
2022-07-29T02:02:34.256Z,4.00
2022-07-29T02:03:34.270Z,5.30
2022-07-29T02:04:34.324Z,4.30
2022-07-29T02:05:34.299Z,5.10
2022-07-29T02:06:34.315Z,6.10
2022-07-29T02:07:34.326Z,6.10
2022-07-29T02:08:34.346Z,4.30
2022-07-29T02:09:34.358Z,4.70
2022-07-29T02:10:34.373Z,4.90
2022-07-29T02:11:34.386Z,4.30
2022-07-29T02:12:34.400Z,4.80
2022-07-29T02:13:34.415Z,4.20
2022-07-29T02:14:34.426Z,4.90
2022-07-29T02:15:34.442Z,5.20
2022-07-29T02:16:34.502Z,4.30
2022-07-29T02:17:34.471Z,5.40
2022-07-29T02:18:34.486Z,5.40
2022-07-29T02:19:34.499Z,4.90
2022-07-29T02:20:34.514Z,5.50
2022-07-29T02:21:34.529Z,5.80
2022-07-29T02:22:34.543Z,4.50
2022-07-29T02:23:45.220Z,4.70
2022-07-29T02:24:34.570Z,5.60
2022-07-29T02:25:37.109Z,4.70
2022-07-29T02:26:34.599Z,5.00
2022-07-29T02:27:34.614Z,4.50
2022-07-29T02:28:34.634Z,4.70
2022-07-29T02:29:34.845Z,4.70
2022-07-29T02:30:34.657Z,4.90
2022-07-29T02:31:34.813Z,5.80
2022-07-29T02:32:34.686Z,4.20
2022-07-29T02:33:34.699Z,6.70
2022-07-29T02:34:34.714Z,5.60
2022-07-29T02:35:35.123Z,5.20
2022-07-29T02:36:34.742Z,5.80
2022-07-29T02:37:34.758Z,5.80
2022-07-29T02:38:34.973Z,5.20
2022-07-29T02:39:34.787Z,4.20
2022-07-29T02:40:35.005Z,5.10
2022-07-29T02:41:34.815Z,5.30
2022-07-29T02:42:34.827Z,5.50
2022-07-29T02:43:34.843Z,5.00
2022-07-29T02:44:35.057Z,4.70
2022-07-29T02:45:34.873Z,4.40
2022-07-29T02:46:34.954Z,4.90
2022-07-29T02:47:41.264Z,5.10
2022-07-29T02:48:34.916Z,5.10
2022-07-29T02:49:34.928Z,4.80
2022-07-29T02:50:34.943Z,5.80
2022-07-29T02:51:41.478Z,4.40
2022-07-29T02:52:34.972Z,5.40
2022-07-29T02:53:34.989Z,5.10
2022-07-29T02:54:35.001Z,3.60
2022-07-29T02:55:35.022Z,7.10
2022-07-29T02:56:35.028Z,5.30
2022-07-29T02:57:35.046Z,5.90
2022-07-29T02:58:35.057Z,4.60
2022-07-29T02:59:35.074Z,5.80
2022-07-29T03:00:35.087Z,5.20
2022-07-29T03:01:35.137Z,5.20
2022-07-29T03:02:35.113Z,5.20
2022-07-29T03:03:35.127Z,5.90
2022-07-29T03:04:35.194Z,7.30
2022-07-29T03:05:35.155Z,4.40
2022-07-29T03:06:38.783Z,5.80
2022-07-29T03:07:35.185Z,6.30
2022-07-29T03:08:35.200Z,5.10
2022-07-29T03:09:35.213Z,5.20
2022-07-29T03:10:35.227Z,5.20
2022-07-29T03:11:46.234Z,4.80
2022-07-29T03:12:35.261Z,4.90
2022-07-29T03:13:35.269Z,4.30
2022-07-29T03:14:35.286Z,4.10
2022-07-29T03:15:35.382Z,4.30
2022-07-29T03:16:40.814Z,4.40
2022-07-29T03:17:35.327Z,6.90
2022-07-29T03:18:35.348Z,6.70
2022-07-29T03:19:35.354Z,5.00
2022-07-29T03:20:35.369Z,5.90
2022-07-29T03:21:35.384Z,6.40
2022-07-29T03:22:35.397Z,5.10
2022-07-29T03:23:36.855Z,5.20
2022-07-29T03:24:35.432Z,4.80
2022-07-29T03:25:35.441Z,5.30
2022-07-29T03:26:35.454Z,5.10
2022-07-29T03:27:35.468Z,5.40
2022-07-29T03:28:35.483Z,4.80
2022-07-29T03:29:35.497Z,4.50
2022-07-29T03:30:35.510Z,4.30
2022-07-29T03:31:35.551Z,4.70
2022-07-29T03:32:35.539Z,6.20
2022-07-29T03:33:35.553Z,5.40
2022-07-29T03:34:35.567Z,4.60
2022-07-29T03:35:35.581Z,5.60
2022-07-29T03:36:35.598Z,6.80
2022-07-29T03:37:35.611Z,5.30
2022-07-29T03:38:35.624Z,5.40
2022-07-29T03:39:35.638Z,5.70
2022-07-29T03:40:35.653Z,4.90
2022-07-29T03:41:35.666Z,5.70
2022-07-29T03:42:35.680Z,4.20
2022-07-29T03:43:35.694Z,5.70
2022-07-29T03:44:35.708Z,4.90
2022-07-29T03:45:35.724Z,5.20
2022-07-29T03:46:35.759Z,5.20
2022-07-29T03:47:49.923Z,6.00
2022-07-29T03:48:35.938Z,5.40
2022-07-29T03:49:35.780Z,5.00
2022-07-29T03:50:35.795Z,5.20
2022-07-29T03:51:35.808Z,4.70
2022-07-29T03:52:35.824Z,5.00
2022-07-29T03:53:35.837Z,4.60
2022-07-29T03:54:35.858Z,6.00
2022-07-29T03:55:35.864Z,6.00
2022-07-29T03:56:35.879Z,5.80
2022-07-29T03:57:35.892Z,5.30
2022-07-29T03:58:35.908Z,5.30
2022-07-29T03:59:35.921Z,5.40
2022-07-29T04:00:35.936Z,5.60
2022-07-29T04:01:36.012Z,6.40
2022-07-29T04:02:35.963Z,4.40
2022-07-29T04:03:36.081Z,4.50
2022-07-29T04:04:35.990Z,4.70
2022-07-29T04:05:36.009Z,5.00
2022-07-29T04:06:36.024Z,5.70
2022-07-29T04:07:36.035Z,5.90
2022-07-29T04:08:36.051Z,5.10
2022-07-29T04:09:36.066Z,5.80
2022-07-29T04:10:36.076Z,5.90
2022-07-29T04:12:01.663Z,5.30
2022-07-29T04:12:36.107Z,5.00
2022-07-29T04:13:36.118Z,5.20
2022-07-29T04:14:36.136Z,5.60
2022-07-29T04:15:36.192Z,5.10
2022-07-29T04:16:36.161Z,4.40
2022-07-29T04:17:36.179Z,5.60
2022-07-29T04:18:36.192Z,6.60
2022-07-29T04:19:36.202Z,4.30
2022-07-29T04:20:36.216Z,5.40
2022-07-29T04:21:36.233Z,5.90
2022-07-29T04:22:36.245Z,4.00
2022-07-29T04:23:36.259Z,5.90
2022-07-29T04:24:36.275Z,4.70
2022-07-29T04:25:36.289Z,4.40
2022-07-29T04:26:36.305Z,5.40
2022-07-29T04:27:36.315Z,6.90
2022-07-29T04:28:36.329Z,4.70
2022-07-29T04:29:36.345Z,6.00
2022-07-29T04:30:36.356Z,5.60
2022-07-29T04:31:36.504Z,5.80
2022-07-29T04:32:36.388Z,5.40
2022-07-29T04:33:36.400Z,5.10
2022-07-29T04:34:36.413Z,5.90
2022-07-29T04:35:37.940Z,5.10
2022-07-29T04:36:36.442Z,4.50
2022-07-29T04:37:36.455Z,6.00
2022-07-29T04:38:36.470Z,5.90
2022-07-29T04:39:36.484Z,4.40
2022-07-29T04:40:38.533Z,4.60
2022-07-29T04:41:36.517Z,5.80
2022-07-29T04:42:46.339Z,5.40
2022-07-29T04:43:36.890Z,4.80
2022-07-29T04:44:37.218Z,6.00
2022-07-29T04:45:36.570Z,6.80
2022-07-29T04:46:36.657Z,5.40
2022-07-29T04:47:36.595Z,4.90
2022-07-29T04:48:36.664Z,5.10
2022-07-29T04:49:36.625Z,5.10
2022-07-29T04:50:36.639Z,4.60
2022-07-29T04:51:36.652Z,5.50
2022-07-29T04:52:36.670Z,5.20
2022-07-29T04:53:36.680Z,5.30
2022-07-29T04:54:36.692Z,4.70
2022-07-29T04:55:36.708Z,5.10
2022-07-29T04:56:36.725Z,4.80
2022-07-29T04:57:36.738Z,4.20
2022-07-29T04:58:36.755Z,4.30
2022-07-29T04:59:36.765Z,5.30
2022-07-29T05:00:36.784Z,5.20
2022-07-29T05:01:36.862Z,7.10
2022-07-29T05:02:37.311Z,4.60
2022-07-29T05:03:36.823Z,5.10
2022-07-29T05:04:36.835Z,4.30
2022-07-29T05:05:36.848Z,5.30
2022-07-29T05:06:36.863Z,4.20
2022-07-29T05:07:36.878Z,4.30
2022-07-29T05:08:36.891Z,4.50
2022-07-29T05:09:36.904Z,5.00
2022-07-29T05:10:36.917Z,5.10
2022-07-29T05:11:36.932Z,4.40
2022-07-29T05:12:36.945Z,5.40
2022-07-29T05:13:46.107Z,4.90
2022-07-29T05:14:36.972Z,4.90
2022-07-29T05:15:37.037Z,6.10
2022-07-29T05:16:37.000Z,4.30
2022-07-29T05:17:37.017Z,4.40
2022-07-29T05:18:37.029Z,4.40
2022-07-29T05:19:39.707Z,4.40
2022-07-29T05:20:37.058Z,8.10
2022-07-29T05:21:37.072Z,5.00
2022-07-29T05:22:37.084Z,4.10
2022-07-29T05:23:37.102Z,5.60
2022-07-29T05:24:37.117Z,4.50
2022-07-29T05:25:43.348Z,5.00
2022-07-29T05:26:37.142Z,5.20
2022-07-29T05:27:37.155Z,5.80
2022-07-29T05:28:37.169Z,4.60
2022-07-29T05:29:44.664Z,6.30
2022-07-29T05:30:37.217Z,4.50
2022-07-29T05:31:37.209Z,4.90
2022-07-29T05:32:37.225Z,4.90
2022-07-29T05:33:37.312Z,6.20
2022-07-29T05:34:37.254Z,4.50
2022-07-29T05:35:37.268Z,5.40
2022-07-29T05:36:37.280Z,5.10
2022-07-29T05:37:37.299Z,5.60
2022-07-29T05:38:37.472Z,5.40
2022-07-29T05:39:47.288Z,4.30
2022-07-29T05:40:37.336Z,4.20
2022-07-29T05:41:37.350Z,4.80
2022-07-29T05:42:37.362Z,5.70
2022-07-29T05:43:37.376Z,4.90
2022-07-29T05:44:37.394Z,5.00
2022-07-29T05:45:50.015Z,4.10
2022-07-29T05:46:37.547Z,5.50
2022-07-29T05:47:37.434Z,4.60
2022-07-29T05:48:37.487Z,4.60
2022-07-29T05:49:37.612Z,3.90
2022-07-29T05:50:37.474Z,5.00
2022-07-29T05:51:37.488Z,4.80
2022-07-29T05:52:37.502Z,4.60
2022-07-29T05:53:37.517Z,4.40
2022-07-29T05:54:37.531Z,5.80
2022-07-29T05:55:37.545Z,5.20
2022-07-29T05:56:37.559Z,4.40
2022-07-29T05:57:37.573Z,3.60
2022-07-29T05:58:37.590Z,4.40
2022-07-29T05:59:37.600Z,4.90
2022-07-29T06:00:37.613Z,3.90
2022-07-29T06:01:37.673Z,4.00
2022-07-29T06:02:37.641Z,5.50
2022-07-29T06:03:37.655Z,5.40
2022-07-29T06:04:37.690Z,4.50
2022-07-29T06:05:37.685Z,4.60
2022-07-29T06:06:37.699Z,4.20
2022-07-29T06:07:37.712Z,5.80
2022-07-29T06:08:37.726Z,4.30
2022-07-29T06:09:37.738Z,5.80
2022-07-29T06:10:37.753Z,5.20
2022-07-29T06:11:37.767Z,4.60
2022-07-29T06:12:37.781Z,3.90
2022-07-29T06:13:37.793Z,4.70
2022-07-29T06:14:37.810Z,4.80
2022-07-29T06:15:37.845Z,4.30
2022-07-29T06:16:37.956Z,4.40
2022-07-29T06:17:37.849Z,4.80
2022-07-29T06:18:37.861Z,4.40
2022-07-29T06:19:37.877Z,4.60
2022-07-29T06:20:37.891Z,3.90
2022-07-29T06:21:38.696Z,6.50
2022-07-29T06:22:37.919Z,4.10
2022-07-29T06:23:37.931Z,4.50
2022-07-29T06:24:37.945Z,4.30
2022-07-29T06:25:37.960Z,4.40
2022-07-29T06:26:39.874Z,3.40
2022-07-29T06:27:37.989Z,4.40
2022-07-29T06:28:38.004Z,3.60
2022-07-29T06:29:38.017Z,4.70
2022-07-29T06:30:38.134Z,3.90
2022-07-29T06:31:38.042Z,4.90
2022-07-29T06:32:42.931Z,3.60
2022-07-29T06:33:38.077Z,4.70
2022-07-29T06:34:38.083Z,4.60
2022-07-29T06:35:42.311Z,5.30
2022-07-29T06:36:38.112Z,4.20
2022-07-29T06:37:38.126Z,3.90
2022-07-29T06:38:42.914Z,3.70
2022-07-29T06:39:38.155Z,4.10
2022-07-29T06:40:38.167Z,3.80
2022-07-29T06:41:38.191Z,4.20
2022-07-29T06:42:38.192Z,4.30
2022-07-29T06:43:51.959Z,3.90
2022-07-29T06:44:38.222Z,4.30
2022-07-29T06:45:38.235Z,4.80
2022-07-29T06:46:38.310Z,4.10
2022-07-29T06:47:38.262Z,4.50
2022-07-29T06:48:38.355Z,4.90
2022-07-29T06:49:38.290Z,4.30
2022-07-29T06:50:38.302Z,3.40
2022-07-29T06:51:38.317Z,4.60
2022-07-29T06:52:38.331Z,5.90
2022-07-29T06:53:38.347Z,5.20
2022-07-29T06:54:38.358Z,5.20
2022-07-29T06:55:38.374Z,4.90
2022-07-29T06:56:40.237Z,5.70
2022-07-29T06:57:38.399Z,4.60
2022-07-29T06:58:38.416Z,5.20
2022-07-29T06:59:38.427Z,5.30
2022-07-29T07:00:38.792Z,4.70
2022-07-29T07:01:38.621Z,4.40
2022-07-29T07:02:38.579Z,4.30
2022-07-29T07:03:38.481Z,4.40
2022-07-29T07:04:38.500Z,4.20
2022-07-29T07:05:38.510Z,4.20
2022-07-29T07:06:38.526Z,4.40
2022-07-29T07:07:38.738Z,4.60
2022-07-29T07:08:38.552Z,4.00
2022-07-29T07:09:40.479Z,3.90
2022-07-29T07:10:38.579Z,4.50
2022-07-29T07:11:38.594Z,4.10
2022-07-29T07:12:38.606Z,4.30
2022-07-29T07:13:38.623Z,3.50
2022-07-29T07:14:38.637Z,3.90
2022-07-29T07:15:39.891Z,4.30
2022-07-29T07:16:38.671Z,3.40
2022-07-29T07:17:38.676Z,5.10
2022-07-29T07:18:38.687Z,3.60
2022-07-29T07:19:38.701Z,3.70
2022-07-29T07:20:38.718Z,4.90
2022-07-29T07:21:38.730Z,5.20
2022-07-29T07:22:39.135Z,3.80
2022-07-29T07:23:38.756Z,3.60
2022-07-29T07:24:38.771Z,3.60
2022-07-29T07:25:38.786Z,4.30
2022-07-29T07:26:38.799Z,4.30
2022-07-29T07:27:38.813Z,4.60
2022-07-29T07:28:38.825Z,3.80
2022-07-29T07:29:38.842Z,4.10
2022-07-29T07:30:38.855Z,4.30
2022-07-29T07:31:38.889Z,3.70
2022-07-29T07:32:38.879Z,4.80
2022-07-29T07:33:38.894Z,4.40
2022-07-29T07:34:39.138Z,4.40
2022-07-29T07:35:38.920Z,3.90
2022-07-29T07:36:38.937Z,4.30
2022-07-29T07:37:38.951Z,3.50
2022-07-29T07:38:38.964Z,3.90
2022-07-29T07:39:38.977Z,4.20
2022-07-29T07:40:38.990Z,3.60
2022-07-29T07:41:39.003Z,4.00
2022-07-29T07:42:39.019Z,4.50
2022-07-29T07:43:39.031Z,4.50
2022-07-29T07:44:57.250Z,3.70
2022-07-29T07:45:39.142Z,5.00
2022-07-29T07:46:39.074Z,4.10
2022-07-29T07:47:39.084Z,6.10
2022-07-29T07:48:39.151Z,3.20
2022-07-29T07:49:39.113Z,3.80
2022-07-29T07:50:39.128Z,4.70
2022-07-29T07:51:39.140Z,3.70
2022-07-29T07:52:39.155Z,3.90
2022-07-29T07:53:39.170Z,3.10
2022-07-29T07:54:39.186Z,3.30
2022-07-29T07:56:08.259Z,3.50
2022-07-29T07:56:39.209Z,3.60
2022-07-29T07:57:39.241Z,3.20
2022-07-29T07:58:39.465Z,3.40
2022-07-29T07:59:39.249Z,4.30
2022-07-29T08:00:39.265Z,3.10
2022-07-29T08:01:48.112Z,3.90
2022-07-29T08:02:39.343Z,4.50
2022-07-29T08:03:39.304Z,4.00
2022-07-29T08:04:39.319Z,4.00
2022-07-29T08:05:39.464Z,4.70
2022-07-29T08:06:39.346Z,4.40
2022-07-29T08:07:39.364Z,4.40
2022-07-29T08:08:39.372Z,4.00
2022-07-29T08:09:39.387Z,4.60
2022-07-29T08:10:39.400Z,3.60
2022-07-29T08:11:39.413Z,4.80
2022-07-29T08:12:39.430Z,3.10
2022-07-29T08:13:39.680Z,3.50
2022-07-29T08:14:39.454Z,4.00
2022-07-29T08:15:39.470Z,4.00
2022-07-29T08:16:39.548Z,4.10
2022-07-29T08:17:39.497Z,3.60
2022-07-29T08:18:39.516Z,5.20
2022-07-29T08:19:39.526Z,4.50
2022-07-29T08:20:39.536Z,4.60
2022-07-29T08:21:39.550Z,3.20
2022-07-29T08:22:39.565Z,4.20
2022-07-29T08:23:46.074Z,4.20
2022-07-29T08:24:39.592Z,4.20
2022-07-29T08:25:40.117Z,3.60
2022-07-29T08:26:39.618Z,4.10
2022-07-29T08:27:43.997Z,3.20
2022-07-29T08:28:39.646Z,3.50
2022-07-29T08:29:39.660Z,4.60
2022-07-29T08:30:39.675Z,4.50
2022-07-29T08:31:39.764Z,4.20
2022-07-29T08:32:56.008Z,4.90
2022-07-29T08:33:39.717Z,3.80
2022-07-29T08:34:39.729Z,4.30
2022-07-29T08:35:39.819Z,3.90
2022-07-29T08:36:39.757Z,4.50
2022-07-29T08:37:39.771Z,3.00
2022-07-29T08:38:39.782Z,3.50
2022-07-29T08:39:39.800Z,3.40
2022-07-29T08:40:40.014Z,5.20
2022-07-29T08:41:39.825Z,3.90
2022-07-29T08:42:39.839Z,4.50
2022-07-29T08:43:39.851Z,4.60
2022-07-29T08:44:39.866Z,3.00
2022-07-29T08:45:40.026Z,2.90
2022-07-29T08:46:39.892Z,4.00
2022-07-29T08:47:39.910Z,4.40
2022-07-29T08:48:40.009Z,3.60
2022-07-29T08:49:39.932Z,3.70
2022-07-29T08:50:39.948Z,3.70
2022-07-29T08:51:48.611Z,3.20
2022-07-29T08:52:39.973Z,4.90
2022-07-29T08:53:39.989Z,4.60
2022-07-29T08:54:40.000Z,2.90
2022-07-29T08:55:40.017Z,3.80
2022-07-29T08:56:40.029Z,3.40
2022-07-29T08:57:40.043Z,4.20
2022-07-29T08:58:40.058Z,4.10
2022-07-29T08:59:40.069Z,3.40
2022-07-29T09:00:40.136Z,3.30
2022-07-29T09:01:44.996Z,3.00
2022-07-29T09:02:40.125Z,4.30
2022-07-29T09:03:40.205Z,4.10
2022-07-29T09:04:40.141Z,5.20
2022-07-29T09:05:42.845Z,3.00
2022-07-29T09:06:40.171Z,3.70
2022-07-29T09:07:40.178Z,3.60
2022-07-29T09:08:40.194Z,2.80
2022-07-29T09:09:40.206Z,2.90
2022-07-29T09:10:40.218Z,3.40
2022-07-29T09:11:40.232Z,4.10
2022-07-29T09:12:40.247Z,3.50
2022-07-29T09:13:40.261Z,4.70
2022-07-29T09:14:40.274Z,4.00
2022-07-29T09:15:40.289Z,3.80
2022-07-29T09:17:00.850Z,4.20
2022-07-29T09:17:40.412Z,4.00
2022-07-29T09:18:40.332Z,3.90
2022-07-29T09:19:45.571Z,3.50
2022-07-29T09:20:40.355Z,3.90
2022-07-29T09:21:40.371Z,3.70
2022-07-29T09:22:42.168Z,3.00
2022-07-29T09:23:40.396Z,3.40
2022-07-29T09:24:40.410Z,4.00
2022-07-29T09:25:40.423Z,3.90
2022-07-29T09:26:40.436Z,4.10
2022-07-29T09:27:40.450Z,3.40
2022-07-29T09:28:40.464Z,3.50
2022-07-29T09:29:40.479Z,4.00
2022-07-29T09:30:40.496Z,4.50
2022-07-29T09:31:40.521Z,2.70
2022-07-29T09:32:40.525Z,3.90
2022-07-29T09:33:40.536Z,3.30
2022-07-29T09:34:40.547Z,3.10
2022-07-29T09:35:40.562Z,3.40
2022-07-29T09:36:40.574Z,4.40
2022-07-29T09:37:40.587Z,3.70
2022-07-29T09:38:40.599Z,3.50
2022-07-29T09:39:40.615Z,3.20
2022-07-29T09:40:40.631Z,3.10
2022-07-29T09:41:40.646Z,3.50
2022-07-29T09:42:40.653Z,4.60
2022-07-29T09:43:40.670Z,3.80
2022-07-29T09:44:40.684Z,3.30
2022-07-29T09:45:40.697Z,2.70
2022-07-29T09:46:40.750Z,5.50
2022-07-29T09:47:40.724Z,2.80
2022-07-29T09:48:40.829Z,3.40
2022-07-29T09:49:40.752Z,5.20
2022-07-29T09:50:40.777Z,3.50
2022-07-29T09:51:40.778Z,3.70
2022-07-29T09:52:40.791Z,4.00
2022-07-29T09:53:40.806Z,3.60
2022-07-29T09:54:40.816Z,2.60
2022-07-29T09:55:40.832Z,3.20
2022-07-29T09:56:40.847Z,3.10
2022-07-29T09:57:40.861Z,2.50
2022-07-29T09:58:40.878Z,3.60
2022-07-29T09:59:50.009Z,3.40
2022-07-29T10:00:40.953Z,2.80
2022-07-29T10:01:40.915Z,2.70
2022-07-29T10:02:40.930Z,3.00
2022-07-29T10:03:40.990Z,3.00
2022-07-29T10:04:41.155Z,2.80
2022-07-29T10:05:41.170Z,3.80
2022-07-29T10:06:40.979Z,3.20
2022-07-29T10:07:40.995Z,3.30
2022-07-29T10:08:41.006Z,2.90
2022-07-29T10:09:41.020Z,3.10
2022-07-29T10:10:41.035Z,3.50
2022-07-29T10:11:49.671Z,2.80
2022-07-29T10:12:41.066Z,4.20
2022-07-29T10:13:41.730Z,3.10
2022-07-29T10:14:41.089Z,2.90
2022-07-29T10:15:41.105Z,3.30
2022-07-29T10:16:41.183Z,2.70
2022-07-29T10:17:41.790Z,3.20
2022-07-29T10:18:41.143Z,2.90
2022-07-29T10:19:41.155Z,3.70
2022-07-29T10:20:41.170Z,2.90
2022-07-29T10:21:41.184Z,3.60
2022-07-29T10:22:52.953Z,3.50
2022-07-29T10:23:46.182Z,4.70
2022-07-29T10:24:41.225Z,4.20
2022-07-29T10:25:46.039Z,2.60
2022-07-29T10:26:41.250Z,3.40
2022-07-29T10:27:41.264Z,3.70
2022-07-29T10:28:41.277Z,3.00
2022-07-29T10:29:41.293Z,2.90
2022-07-29T10:30:41.305Z,3.30
2022-07-29T10:31:41.438Z,3.20
2022-07-29T10:32:41.333Z,2.90
2022-07-29T10:33:41.346Z,2.70
2022-07-29T10:34:41.360Z,3.70
2022-07-29T10:35:41.374Z,3.80
2022-07-29T10:36:41.387Z,2.80
2022-07-29T10:37:45.814Z,2.90
2022-07-29T10:38:45.650Z,2.80
2022-07-29T10:39:41.714Z,3.40
2022-07-29T10:40:41.439Z,2.30
2022-07-29T10:41:44.190Z,2.70
2022-07-29T10:42:41.467Z,2.80
2022-07-29T10:43:42.362Z,3.40
2022-07-29T10:44:41.498Z,4.10
2022-07-29T10:45:41.509Z,3.30
2022-07-29T10:46:41.596Z,2.90
2022-07-29T10:47:41.535Z,4.00
2022-07-29T10:48:41.550Z,2.60
2022-07-29T10:49:41.563Z,4.40
2022-07-29T10:50:41.575Z,3.70
2022-07-29T10:51:41.796Z,3.10
2022-07-29T10:52:41.604Z,2.40
2022-07-29T10:53:41.616Z,3.20
2022-07-29T10:54:42.424Z,2.70
2022-07-29T10:55:43.321Z,2.30
2022-07-29T10:56:41.657Z,3.20
2022-07-29T10:57:55.006Z,3.10
2022-07-29T10:58:41.690Z,2.30
2022-07-29T10:59:41.704Z,2.50
2022-07-29T11:00:41.712Z,4.40
2022-07-29T11:01:46.425Z,2.90
2022-07-29T11:02:43.511Z,3.20
2022-07-29T11:03:41.846Z,2.60
2022-07-29T11:04:41.765Z,2.60
2022-07-29T11:05:41.779Z,3.00
2022-07-29T11:06:42.833Z,3.90
2022-07-29T11:07:46.405Z,4.80
2022-07-29T11:08:41.821Z,4.20
2022-07-29T11:09:41.833Z,3.60
2022-07-29T11:10:41.847Z,3.50
2022-07-29T11:11:43.928Z,5.10
2022-07-29T11:12:41.873Z,4.80
2022-07-29T11:13:41.887Z,5.80
2022-07-29T11:14:41.901Z,3.30
2022-07-29T11:15:41.913Z,4.60
2022-07-29T11:16:41.926Z,4.40
2022-07-29T11:17:52.000Z,4.70
2022-07-29T11:18:41.952Z,4.60
2022-07-29T11:19:42.412Z,5.20
2022-07-29T11:20:41.980Z,5.70
2022-07-29T11:21:53.965Z,5.00
2022-07-29T11:22:43.116Z,5.00
2022-07-29T11:23:42.840Z,4.80
2022-07-29T11:24:50.134Z,6.80
2022-07-29T11:25:50.320Z,8.30
2022-07-29T11:26:42.061Z,5.90
2022-07-29T11:27:42.074Z,5.10
2022-07-29T11:28:42.090Z,5.80
2022-07-29T11:29:43.104Z,5.30
2022-07-29T11:30:42.116Z,6.50
2022-07-29T11:31:42.129Z,5.40
2022-07-29T11:32:42.145Z,5.20
2022-07-29T11:33:55.981Z,5.40
2022-07-29T11:34:42.168Z,4.90
2022-07-29T11:35:42.183Z,6.60
2022-07-29T11:36:42.197Z,5.40
2022-07-29T11:37:45.777Z,6.50
2022-07-29T11:38:42.222Z,5.50
2022-07-29T11:39:42.237Z,6.30
2022-07-29T11:40:42.591Z,7.60
2022-07-29T11:41:42.266Z,5.10
2022-07-29T11:42:44.405Z,6.10
2022-07-29T11:43:42.294Z,6.60
2022-07-29T11:44:42.305Z,6.60
2022-07-29T11:45:45.535Z,6.60
2022-07-29T11:46:42.333Z,5.00
2022-07-29T11:47:42.386Z,5.00
2022-07-29T11:48:42.405Z,5.20
2022-07-29T11:49:42.371Z,5.70
2022-07-29T11:50:44.615Z,7.70
2022-07-29T11:51:48.560Z,5.60
2022-07-29T11:53:42.438Z,6.00
2022-07-29T11:54:57.691Z,6.30
2022-07-29T11:56:42.469Z,6.50
2022-07-29T11:57:42.482Z,7.10
2022-07-29T11:58:42.492Z,5.50
2022-07-29T11:59:42.509Z,6.70
2022-07-29T12:00:42.527Z,6.00
2022-07-29T12:01:42.535Z,7.50
2022-07-29T12:02:43.038Z,7.30
2022-07-29T12:03:43.629Z,7.20
2022-07-29T12:04:42.574Z,5.80
2022-07-29T12:05:48.326Z,6.70
2022-07-29T12:06:42.601Z,5.50
2022-07-29T12:07:02.231Z,4.60
2022-07-29T12:07:02.363Z,5.30
2022-07-29T12:07:45.436Z,7.20
2022-07-29T12:08:42.629Z,7.10
2022-07-29T12:09:42.642Z,7.60
2022-07-29T12:10:42.654Z,6.20
2022-07-29T12:11:42.671Z,7.40
2022-07-29T12:12:42.690Z,6.60
2022-07-29T12:13:42.697Z,5.20
2022-07-29T12:14:42.709Z,6.80
2022-07-29T12:15:46.168Z,7.30
2022-07-29T12:16:42.785Z,6.00
2022-07-29T12:17:42.750Z,5.00
2022-07-29T12:18:42.764Z,4.90
2022-07-29T12:19:42.776Z,5.90
2022-07-29T12:20:42.791Z,6.40
2022-07-29T12:21:52.286Z,7.20
2022-07-29T12:22:42.818Z,6.30
2022-07-29T12:23:42.833Z,5.60
2022-07-29T12:24:42.845Z,4.80
2022-07-29T12:25:42.861Z,4.70
2022-07-29T12:26:42.873Z,5.10
2022-07-29T12:27:42.886Z,6.80
2022-07-29T12:28:42.900Z,5.80
2022-07-29T12:29:47.967Z,7.00
2022-07-29T12:30:42.928Z,6.80
2022-07-29T12:31:45.300Z,5.60
2022-07-29T12:32:42.954Z,4.90
2022-07-29T12:33:42.967Z,5.60
2022-07-29T12:34:43.184Z,6.40
2022-07-29T12:35:42.998Z,7.00
2022-07-29T12:36:43.009Z,5.20
2022-07-29T12:37:43.114Z,5.70
2022-07-29T12:38:43.034Z,6.40
2022-07-29T12:39:43.050Z,6.00
2022-07-29T12:40:43.309Z,7.70
2022-07-29T12:41:43.077Z,5.90
2022-07-29T12:42:43.089Z,5.70
2022-07-29T12:43:43.710Z,4.20
2022-07-29T12:44:43.117Z,4.80
2022-07-29T12:45:43.131Z,3.70
2022-07-29T12:46:43.168Z,4.50
2022-07-29T12:47:43.158Z,5.30
2022-07-29T12:48:43.278Z,5.90
2022-07-29T12:49:43.185Z,5.80
2022-07-29T12:50:43.199Z,4.30
2022-07-29T12:51:43.213Z,5.20
2022-07-29T12:52:43.226Z,5.50
2022-07-29T12:53:43.280Z,4.90
2022-07-29T12:54:43.255Z,3.70
2022-07-29T12:55:43.273Z,3.40
2022-07-29T12:56:44.761Z,4.10
2022-07-29T12:57:43.295Z,5.20
2022-07-29T12:58:46.059Z,4.20
2022-07-29T12:59:43.320Z,3.90
2022-07-29T13:00:43.377Z,6.90
2022-07-29T13:01:43.350Z,4.70
2022-07-29T13:02:43.434Z,4.40
2022-07-29T13:03:43.378Z,5.40
2022-07-29T13:04:43.389Z,4.50
2022-07-29T13:05:47.166Z,4.30
2022-07-29T13:06:46.038Z,4.00
2022-07-29T13:07:55.525Z,4.40
2022-07-29T13:08:43.447Z,5.20
2022-07-29T13:09:43.463Z,5.60
2022-07-29T13:10:43.675Z,6.00
2022-07-29T13:11:48.213Z,5.50
2022-07-29T13:12:43.500Z,3.90
2022-07-29T13:13:43.512Z,4.50
2022-07-29T13:14:43.531Z,3.60
2022-07-29T13:15:43.541Z,4.60
2022-07-29T13:16:43.607Z,3.70
2022-07-29T13:17:43.567Z,4.80
2022-07-29T13:18:43.582Z,3.20